Ayrshire, Iowa
Current Conditions -  °F | °C
As of 4:53 PM on Saturday 25 Oct 2014 (Local Time) from KSPW Reporting Station
Clear Clear  
Wind Chill: 67°   Ceiling: Unl
Heat Index: 67°   Visibility: 10mi
Dew Point: 32°   Wind: 7mph
Humidity: 27%   Direction: 360°N
Pressure: 30.09"   Gusts: NA
Location:  43.04°N, 94.83°W
Report Text: KSPW 252153Z AUTO 36006KT 10SM CLR 19/00 A3009 RMK AO2 SLP190 T01940000 TSNO
Loading
Personal Weather Stations






























Interactive Weather Map New forecast layout! Learn more

10-Day Weather Forecast

Advertisements
Track Severe Weather on mobile